Time;durP1;ratioP1;P1;durP2;ratioP2;P2;SDS_P1;SDS_P2;PMS_P1;PMS_P2;Temp;Humidity;BMP_temperature;BMP_pressure;BME280_temperature;BME280_humidity;BME280_pressure;Samples;Min_cycle;Max_cycle;Signal;HPM_P1;HPM_P2
2022/03/06 00:02:08;;;;;;;1.00;0.90;;;1.10;99.90;;;;;;4985296;28;20436;-83
2022/03/06 00:04:34;;;;;;;1.00;0.90;;;1.00;99.90;;;;;;4978389;28;20499;-85
2022/03/06 00:06:59;;;;;;;1.00;0.90;;;1.10;99.90;;;;;;4983444;28;20994;-86
2022/03/06 00:09:25;;;;;;;1.20;1.10;;;1.10;99.90;;;;;;4963917;28;20189;-85
2022/03/06 00:11:52;;;;;;;1.00;0.90;;;1.10;99.90;;;;;;4978329;28;20560;-86
2022/03/06 00:14:18;;;;;;;1.00;0.90;;;1.20;99.90;;;;;;4983957;28;20231;-85
2022/03/06 00:16:44;;;;;;;0.90;0.80;;;1.20;99.90;;;;;;4984163;28;20471;-86
2022/03/06 00:19:09;;;;;;;1.20;1.10;;;1.20;99.90;;;;;;4982283;28;20725;-85
2022/03/06 00:21:35;;;;;;;1.10;1.00;;;1.20;99.90;;;;;;4991439;28;20471;-85
2022/03/06 00:24:02;;;;;;;1.20;1.10;;;1.20;99.90;;;;;;4993343;28;20181;-85
2022/03/06 00:26:28;;;;;;;1.90;1.80;;;1.20;99.90;;;;;;4990967;28;20455;-85
2022/03/06 00:28:54;;;;;;;1.03;0.93;;;1.20;99.90;;;;;;4969466;28;20953;-85
2022/03/06 00:31:20;;;;;;;1.00;0.90;;;1.20;99.90;;;;;;4992283;28;20189;-86
2022/03/06 00:33:45;;;;;;;1.00;0.90;;;1.20;99.90;;;;;;4990031;28;20541;-85
2022/03/06 00:36:11;;;;;;;1.00;0.90;;;1.30;99.90;;;;;;4987927;28;20189;-85
2022/03/06 00:38:36;;;;;;;1.23;1.13;;;1.30;99.90;;;;;;4963474;28;20204;-86
2022/03/06 00:41:02;;;;;;;1.10;1.00;;;1.30;99.90;;;;;;4986278;28;20188;-85
2022/03/06 00:43:28;;;;;;;1.10;1.00;;;1.30;99.90;;;;;;4998783;28;20193;-85
2022/03/06 00:45:53;;;;;;;1.00;0.90;;;1.30;99.90;;;;;;4991570;28;20612;-85
2022/03/06 00:48:19;;;;;;;1.10;1.00;;;1.30;99.90;;;;;;4992109;28;20672;-84
2022/03/06 00:50:45;;;;;;;1.57;1.47;;;1.30;99.90;;;;;;4989966;28;20192;-85
2022/03/06 00:53:10;;;;;;;1.00;0.90;;;1.40;99.90;;;;;;4992356;28;20271;-85
2022/03/06 00:55:37;;;;;;;1.10;1.00;;;1.40;99.90;;;;;;4991597;28;20232;-85
2022/03/06 00:58:06;;;;;;;1.20;1.10;;;1.40;99.90;;;;;;4993974;28;20263;-85
2022/03/06 01:00:35;;;;;;;0.80;0.80;;;1.40;99.90;;;;;;4992586;28;20769;-84
2022/03/06 01:03:02;;;;;;;1.30;1.20;;;1.40;99.90;;;;;;4989658;28;21020;-84
2022/03/06 01:05:27;;;;;;;1.00;0.90;;;1.40;99.90;;;;;;4969400;28;20438;-85
2022/03/06 01:07:53;;;;;;;1.03;0.93;;;1.50;99.90;;;;;;4971798;28;20568;-86
2022/03/06 01:10:19;;;;;;;1.00;0.90;;;1.50;99.90;;;;;;4974269;28;20185;-85
2022/03/06 01:12:45;;;;;;;1.07;0.97;;;1.50;99.90;;;;;;4973242;28;20221;-85
2022/03/06 01:15:11;;;;;;;1.67;1.57;;;1.50;99.90;;;;;;4972728;28;20430;-85
2022/03/06 01:17:36;;;;;;;1.03;0.93;;;1.50;99.90;;;;;;4973005;28;20209;-85
2022/03/06 01:20:03;;;;;;;1.10;1.00;;;1.50;99.90;;;;;;4970806;28;20272;-85
2022/03/06 01:22:28;;;;;;;1.10;1.00;;;1.50;99.90;;;;;;4977926;28;20194;-85
2022/03/06 01:24:54;;;;;;;1.00;0.90;;;1.50;99.90;;;;;;4990114;28;20459;-85
2022/03/06 01:27:19;;;;;;;1.10;1.00;;;1.50;99.90;;;;;;4964397;28;20193;-85
2022/03/06 01:29:45;;;;;;;1.00;0.90;;;1.40;99.90;;;;;;4969327;28;20618;-85
2022/03/06 01:32:10;;;;;;;1.03;0.93;;;1.50;99.90;;;;;;4971141;28;20225;-85
2022/03/06 01:34:36;;;;;;;0.97;0.90;;;1.50;99.90;;;;;;4971701;28;20226;-85
2022/03/06 01:37:02;;;;;;;1.00;0.90;;;1.50;99.90;;;;;;4972206;28;20194;-85
2022/03/06 01:39:27;;;;;;;0.90;0.80;;;1.50;99.90;;;;;;4971213;28;20209;-85
2022/03/06 01:41:53;;;;;;;0.83;0.80;;;1.50;99.90;;;;;;4971370;28;20190;-85
2022/03/06 01:44:18;;;;;;;1.10;1.00;;;1.50;99.90;;;;;;4971832;28;20194;-84
2022/03/06 01:46:47;;;;;;;1.10;1.00;;;1.50;99.90;;;;;;4973130;28;20190;-85
2022/03/06 01:49:15;;;;;;;1.10;1.00;;;1.40;99.90;;;;;;4971466;28;20186;-85
2022/03/06 01:51:41;;;;;;;0.97;0.87;;;1.40;99.90;;;;;;4972812;28;20449;-85
2022/03/06 01:54:07;;;;;;;1.00;0.90;;;1.40;99.90;;;;;;4972144;28;20488;-85
2022/03/06 01:56:33;;;;;;;1.00;0.90;;;1.40;99.90;;;;;;4952186;28;20442;-85
2022/03/06 01:59:01;;;;;;;1.00;0.90;;;1.50;99.90;;;;;;4971488;28;20822;-85
2022/03/06 02:01:27;;;;;;;1.00;0.90;;;1.50;99.90;;;;;;4972595;28;21132;-85
2022/03/06 02:03:53;;;;;;;1.00;0.90;;;1.50;99.90;;;;;;4975448;28;20480;-85
2022/03/06 02:06:19;;;;;;;1.00;0.90;;;1.50;99.90;;;;;;4974133;28;20440;-84
2022/03/06 02:08:46;;;;;;;1.00;0.90;;;1.50;99.90;;;;;;4974740;28;20184;-86
2022/03/06 02:11:12;;;;;;;0.90;0.80;;;1.40;99.90;;;;;;4988195;28;20511;-85
2022/03/06 02:13:38;;;;;;;1.00;0.90;;;1.50;99.90;;;;;;4972699;28;20483;-84
2022/03/06 02:16:05;;;;;;;1.10;1.00;;;1.50;99.90;;;;;;4991007;28;20537;-85
2022/03/06 02:18:30;;;;;;;1.10;1.00;;;1.50;99.90;;;;;;4991368;28;20200;-86
2022/03/06 02:20:56;;;;;;;1.00;0.90;;;1.50;99.90;;;;;;4985717;28;20440;-85
2022/03/06 02:23:22;;;;;;;1.00;0.90;;;1.50;99.90;;;;;;4991252;28;20284;-85
2022/03/06 02:25:48;;;;;;;1.00;0.90;;;1.50;99.90;;;;;;4991151;28;20438;-85
2022/03/06 02:28:13;;;;;;;0.90;0.80;;;1.40;99.90;;;;;;4973528;28;20227;-84
2022/03/06 02:30:41;;;;;;;0.90;0.80;;;1.40;99.90;;;;;;4974039;28;20547;-85
2022/03/06 02:33:09;;;;;;;1.00;0.90;;;1.40;99.90;;;;;;4987515;28;20221;-85
2022/03/06 02:35:36;;;;;;;0.90;0.80;;;1.50;99.90;;;;;;4986891;28;20530;-85
2022/03/06 02:38:02;;;;;;;1.30;1.20;;;1.40;99.90;;;;;;4990537;28;20937;-86
2022/03/06 02:40:28;;;;;;;1.30;1.20;;;1.30;99.90;;;;;;4988544;28;20835;-85
2022/03/06 02:42:54;;;;;;;0.87;0.80;;;1.30;99.90;;;;;;4970969;28;20444;-85
2022/03/06 02:45:25;;;;;;;4.20;1.63;;;1.30;99.90;;;;;;4990149;28;20432;-85
2022/03/06 02:47:54;;;;;;;1.00;0.90;;;1.40;99.90;;;;;;4991122;28;20515;-85
2022/03/06 02:50:22;;;;;;;1.00;0.90;;;1.40;99.90;;;;;;4989018;28;20474;-85
2022/03/06 02:52:49;;;;;;;1.30;1.20;;;1.40;99.90;;;;;;4973024;28;20913;-86
2022/03/06 02:55:16;;;;;;;1.00;0.90;;;1.40;99.90;;;;;;4973956;28;20814;-85
2022/03/06 02:57:42;;;;;;;1.00;0.90;;;1.30;99.90;;;;;;4989459;28;20523;-85
2022/03/06 03:00:11;;;;;;;1.00;0.90;;;1.30;99.90;;;;;;4989073;28;20451;-85
2022/03/06 03:02:38;;;;;;;1.10;1.00;;;1.40;99.90;;;;;;4972883;28;20440;-84
2022/03/06 03:05:08;;;;;;;1.00;0.90;;;1.30;99.90;;;;;;4987638;28;20484;-85
2022/03/06 03:07:37;;;;;;;1.27;1.17;;;1.20;99.90;;;;;;4989673;28;20486;-84
2022/03/06 03:10:04;;;;;;;1.00;0.90;;;1.10;99.90;;;;;;4983452;28;20445;-85
2022/03/06 03:12:30;;;;;;;1.00;0.90;;;1.30;99.90;;;;;;4981716;28;20467;-85
2022/03/06 03:14:55;;;;;;;1.00;0.90;;;1.30;99.90;;;;;;4991035;28;20440;-85
2022/03/06 03:17:21;;;;;;;1.10;1.00;;;1.30;99.90;;;;;;4989874;28;20189;-86
2022/03/06 03:19:46;;;;;;;1.00;0.90;;;1.30;99.90;;;;;;4987321;28;20684;-85
2022/03/06 03:22:12;;;;;;;1.10;1.00;;;1.40;99.90;;;;;;4971081;28;20256;-85
2022/03/06 03:24:37;;;;;;;1.00;0.90;;;1.40;99.90;;;;;;4989271;28;20184;-85
2022/03/06 03:27:03;;;;;;;1.00;0.90;;;1.40;99.90;;;;;;4989647;28;20672;-85
2022/03/06 03:29:28;;;;;;;1.00;0.90;;;1.30;99.90;;;;;;4988198;28;20189;-85
2022/03/06 03:31:54;;;;;;;0.83;0.80;;;1.40;99.90;;;;;;4990276;28;20185;-85
2022/03/06 03:34:19;;;;;;;1.00;0.90;;;1.40;99.90;;;;;;4987433;28;20269;-85
2022/03/06 03:36:45;;;;;;;0.97;0.87;;;1.30;99.90;;;;;;4988203;28;20196;-85
2022/03/06 03:39:11;;;;;;;0.87;0.80;;;1.20;99.90;;;;;;4992021;28;20178;-85
2022/03/06 03:41:36;;;;;;;1.10;1.00;;;1.30;99.90;;;;;;4990691;28;20239;-85
2022/03/06 03:44:03;;;;;;;1.00;0.90;;;1.20;99.90;;;;;;4972474;28;20247;-85
2022/03/06 03:46:28;;;;;;;0.90;0.80;;;1.20;99.90;;;;;;4987845;28;20184;-85
2022/03/06 03:48:54;;;;;;;0.87;0.80;;;1.20;99.90;;;;;;4988159;28;20452;-85
2022/03/06 03:51:19;;;;;;;1.00;0.90;;;1.20;99.90;;;;;;4990519;28;20200;-85
2022/03/06 03:53:45;;;;;;;1.03;0.93;;;1.30;99.90;;;;;;4991520;28;20220;-85
2022/03/06 03:56:10;;;;;;;1.20;1.10;;;1.30;99.90;;;;;;4993568;28;20583;-84
2022/03/06 03:58:36;;;;;;;1.10;1.00;;;1.20;99.90;;;;;;4992893;28;20189;-84
2022/03/06 04:01:02;;;;;;;1.00;0.90;;;1.20;99.90;;;;;;4985551;28;20216;-85
2022/03/06 04:03:27;;;;;;;1.00;0.90;;;1.10;99.90;;;;;;4992503;28;20341;-85
2022/03/06 04:05:53;;;;;;;1.00;0.90;;;1.20;99.90;;;;;;4992469;28;20952;-84
2022/03/06 04:08:19;;;;;;;0.90;0.80;;;1.10;99.90;;;;;;4993989;28;20189;-84
2022/03/06 04:10:44;;;;;;;1.37;1.27;;;1.20;99.90;;;;;;4994931;28;20189;-84
2022/03/06 04:13:10;;;;;;;1.00;0.90;;;1.20;99.90;;;;;;4993031;28;20543;-85
2022/03/06 04:15:36;;;;;;;1.00;0.90;;;1.20;99.90;;;;;;4993767;28;20177;-85
2022/03/06 04:18:02;;;;;;;1.00;0.90;;;1.10;99.90;;;;;;4993305;28;20209;-85
2022/03/06 04:20:28;;;;;;;1.00;0.90;;;1.20;99.90;;;;;;4982782;28;21206;-85
2022/03/06 04:22:55;;;;;;;0.80;0.80;;;1.10;99.90;;;;;;4991419;28;20452;-85
2022/03/06 04:25:20;;;;;;;1.00;0.90;;;1.10;99.90;;;;;;4993482;28;20313;-85
2022/03/06 04:27:46;;;;;;;0.87;0.80;;;1.00;99.90;;;;;;4994426;28;21216;-85
2022/03/06 04:30:11;;;;;;;1.10;1.00;;;1.00;99.90;;;;;;4976395;28;20239;-85
2022/03/06 04:32:37;;;;;;;1.10;1.00;;;1.10;99.90;;;;;;4994306;28;20215;-85
2022/03/06 04:35:05;;;;;;;1.00;0.90;;;1.10;99.90;;;;;;4990836;28;20564;-85
2022/03/06 04:37:30;;;;;;;0.90;0.80;;;1.00;99.90;;;;;;4972442;28;20240;-85
2022/03/06 04:39:56;;;;;;;1.00;0.90;;;1.00;99.90;;;;;;4992783;28;20459;-85
2022/03/06 04:42:22;;;;;;;1.10;1.00;;;1.00;99.90;;;;;;4993541;28;20240;-85
2022/03/06 04:44:47;;;;;;;1.00;0.90;;;0.90;99.90;;;;;;4993820;28;20180;-85
2022/03/06 04:47:13;;;;;;;0.80;0.80;;;1.00;99.90;;;;;;4987638;28;20436;-85
2022/03/06 04:49:39;;;;;;;1.00;0.90;;;1.00;99.90;;;;;;4990797;28;20708;-85
2022/03/06 04:52:05;;;;;;;1.43;1.33;;;1.00;99.90;;;;;;4992884;28;20192;-85
2022/03/06 04:54:31;;;;;;;1.00;0.90;;;1.00;99.90;;;;;;4992883;28;20440;-85
2022/03/06 04:56:56;;;;;;;0.80;0.80;;;1.00;99.90;;;;;;4991655;28;20279;-85
2022/03/06 04:59:22;;;;;;;1.00;0.90;;;0.90;99.90;;;;;;4992393;28;20274;-84
2022/03/06 05:01:47;;;;;;;1.00;0.90;;;1.00;99.90;;;;;;4991904;28;20186;-85
2022/03/06 05:04:13;;;;;;;1.53;1.43;;;1.00;99.90;;;;;;4990545;28;20778;-85
2022/03/06 05:06:38;;;;;;;1.10;1.00;;;1.00;99.90;;;;;;4992593;28;20197;-85
2022/03/06 05:09:04;;;;;;;1.00;0.90;;;1.00;99.90;;;;;;4991808;28;21215;-85
2022/03/06 05:11:29;;;;;;;1.07;0.97;;;1.00;99.90;;;;;;4992150;28;20320;-85
2022/03/06 05:13:55;;;;;;;1.10;1.00;;;1.00;99.90;;;;;;4992066;28;20233;-85
2022/03/06 05:16:21;;;;;;;0.90;0.80;;;1.00;99.90;;;;;;4991629;28;20204;-85
2022/03/06 05:18:46;;;;;;;0.83;0.80;;;1.00;99.90;;;;;;4990191;28;20200;-85
2022/03/06 05:21:12;;;;;;;1.10;1.00;;;1.00;99.90;;;;;;4990496;28;20178;-84
2022/03/06 05:23:37;;;;;;;1.10;1.00;;;1.00;99.90;;;;;;4987154;28;20187;-85
2022/03/06 05:26:03;;;;;;;1.00;0.90;;;1.00;99.90;;;;;;4989590;28;20177;-84
2022/03/06 05:28:29;;;;;;;1.00;0.90;;;0.90;99.90;;;;;;4990555;28;20197;-85
2022/03/06 05:30:55;;;;;;;1.00;0.90;;;1.00;99.90;;;;;;4990173;28;20535;-85
2022/03/06 05:33:20;;;;;;;1.03;0.93;;;1.00;99.90;;;;;;4988875;28;20568;-85
2022/03/06 05:35:49;;;;;;;1.43;1.33;;;0.90;99.90;;;;;;4961543;28;20445;-85
2022/03/06 05:38:14;;;;;;;1.00;0.90;;;1.00;99.90;;;;;;4976153;28;20189;-85
2022/03/06 05:40:40;;;;;;;0.83;0.80;;;1.00;99.90;;;;;;4972724;28;20510;-84
2022/03/06 05:43:06;;;;;;;0.97;0.90;;;1.00;99.90;;;;;;4993026;28;20688;-84
2022/03/06 05:45:31;;;;;;;1.20;1.10;;;1.00;99.90;;;;;;4992486;28;20205;-85
2022/03/06 05:47:57;;;;;;;1.00;0.90;;;1.00;99.90;;;;;;4982391;28;20192;-85
2022/03/06 05:50:22;;;;;;;1.10;1.00;;;1.00;99.90;;;;;;4969227;28;20272;-85
2022/03/06 05:52:51;;;;;;;1.10;1.00;;;0.90;99.90;;;;;;4974781;28;20601;-85
2022/03/06 05:55:18;;;;;;;1.10;1.00;;;0.90;99.90;;;;;;4972481;28;20661;-85
2022/03/06 05:57:44;;;;;;;1.00;0.90;;;0.90;99.90;;;;;;4990676;28;21121;-85
2022/03/06 06:00:11;;;;;;;0.97;0.87;;;0.80;99.90;;;;;;4992142;28;20444;-86
2022/03/06 06:02:38;;;;;;;1.10;1.00;;;0.70;99.90;;;;;;4984724;28;20448;-84
2022/03/06 06:05:11;;;;;;;1.30;1.20;;;0.60;99.90;;;;;;4981801;28;20559;-85
2022/03/06 06:07:37;;;;;;;1.10;1.00;;;0.50;99.90;;;;;;4971534;28;20441;-85
2022/03/06 06:10:04;;;;;;;1.20;1.10;;;0.40;99.90;;;;;;5009820;28;20424;-85
2022/03/06 06:12:29;;;;;;;1.20;1.10;;;0.40;99.90;;;;;;4985595;28;20456;-85
2022/03/06 06:14:55;;;;;;;1.00;0.90;;;0.40;99.90;;;;;;4991204;28;20950;-86
2022/03/06 06:17:20;;;;;;;0.93;0.90;;;0.40;99.90;;;;;;4982120;28;20247;-85
2022/03/06 06:19:46;;;;;;;1.00;0.90;;;0.40;99.90;;;;;;4988976;28;20192;-84
2022/03/06 06:22:11;;;;;;;1.00;0.90;;;0.40;99.90;;;;;;4981650;28;20557;-85
2022/03/06 06:24:37;;;;;;;1.03;0.93;;;0.50;99.90;;;;;;4986250;28;20263;-84
2022/03/06 06:27:03;;;;;;;1.10;1.00;;;0.60;99.90;;;;;;4989961;28;20182;-84
2022/03/06 06:29:28;;;;;;;0.93;0.90;;;0.60;99.90;;;;;;4972521;28;20609;-85
2022/03/06 06:31:54;;;;;;;1.27;1.17;;;0.60;99.90;;;;;;4988013;28;20579;-85
2022/03/06 06:34:20;;;;;;;2.40;2.30;;;0.60;99.90;;;;;;4966006;28;20224;-85
2022/03/06 06:36:46;;;;;;;0.80;0.70;;;0.70;99.90;;;;;;4975171;28;20181;-85
2022/03/06 06:39:12;;;;;;;1.10;1.00;;;0.70;99.90;;;;;;4990217;28;20590;-84
2022/03/06 06:41:39;;;;;;;1.00;0.90;;;0.70;99.90;;;;;;4987249;28;20535;-83
2022/03/06 06:44:05;;;;;;;1.10;1.00;;;0.70;99.90;;;;;;4989836;28;20264;-84
2022/03/06 06:46:31;;;;;;;1.00;0.90;;;0.80;99.90;;;;;;4988299;28;20492;-84
2022/03/06 06:48:57;;;;;;;1.00;0.90;;;0.80;99.90;;;;;;4994207;28;20527;-85
2022/03/06 06:51:22;;;;;;;1.00;0.90;;;0.80;99.90;;;;;;4988744;28;20842;-84
2022/03/06 06:53:48;;;;;;;0.83;0.80;;;0.80;99.90;;;;;;4984226;28;20746;-83
2022/03/06 06:56:13;;;;;;;0.93;0.83;;;0.80;99.90;;;;;;4966987;28;20204;-84
2022/03/06 06:58:39;;;;;;;1.93;1.50;;;0.70;99.90;;;;;;4991190;28;20186;-84
2022/03/06 07:01:05;;;;;;;1.10;1.00;;;0.70;99.90;;;;;;4985256;28;20184;-83
2022/03/06 07:03:31;;;;;;;1.10;1.00;;;0.70;99.90;;;;;;4986721;28;20237;-84
2022/03/06 07:05:58;;;;;;;1.00;0.90;;;0.60;99.90;;;;;;4967904;28;20444;-84
2022/03/06 07:08:23;;;;;;;1.20;1.10;;;0.70;99.90;;;;;;4988957;28;20789;-84
2022/03/06 07:10:49;;;;;;;1.00;0.90;;;0.80;99.90;;;;;;4990204;28;20489;-84
2022/03/06 07:13:15;;;;;;;1.00;0.90;;;0.90;99.90;;;;;;4973135;28;20224;-84
2022/03/06 07:15:40;;;;;;;1.63;1.53;;;0.80;99.90;;;;;;4971734;28;20177;-85
2022/03/06 07:18:06;;;;;;;1.03;0.93;;;0.90;99.90;;;;;;4971831;28;21211;-85
2022/03/06 07:20:32;;;;;;;1.77;1.67;;;1.10;99.90;;;;;;4972998;28;20185;-85
2022/03/06 07:22:58;;;;;;;1.00;0.90;;;1.20;99.90;;;;;;4990246;28;20596;-85
2022/03/06 07:25:24;;;;;;;0.87;0.80;;;1.20;99.90;;;;;;4965282;28;20645;-85
2022/03/06 07:27:49;;;;;;;1.10;1.00;;;1.30;99.90;;;;;;4989342;28;20451;-84
2022/03/06 07:30:16;;;;;;;0.87;0.80;;;1.40;99.90;;;;;;4984875;28;20971;-85
2022/03/06 07:32:46;;;;;;;1.20;1.10;;;1.60;99.90;;;;;;4986542;28;20712;-85
2022/03/06 07:35:13;;;;;;;1.00;0.90;;;2.00;99.90;;;;;;4985939;28;20984;-85
2022/03/06 07:37:39;;;;;;;4.00;1.73;;;2.00;99.90;;;;;;4994822;28;20455;-84
2022/03/06 07:40:05;;;;;;;1.00;0.90;;;2.00;99.90;;;;;;4979607;28;20451;-86
2022/03/06 07:42:31;;;;;;;1.10;1.00;;;2.00;99.90;;;;;;4985816;28;20196;-85
2022/03/06 07:44:57;;;;;;;1.53;1.43;;;2.10;99.90;;;;;;4984315;28;20449;-85
2022/03/06 07:47:23;;;;;;;1.13;1.03;;;2.40;99.90;;;;;;4979761;28;20201;-85
2022/03/06 07:49:48;;;;;;;1.07;0.97;;;2.40;99.90;;;;;;4984795;28;20954;-85
2022/03/06 07:52:14;;;;;;;1.00;0.90;;;2.30;99.90;;;;;;4983184;28;20197;-86
2022/03/06 07:54:39;;;;;;;1.00;0.90;;;2.80;99.90;;;;;;4984588;28;20200;-85
2022/03/06 07:57:05;;;;;;;1.00;0.90;;;2.90;99.90;;;;;;4981744;28;20189;-85
2022/03/06 07:59:31;;;;;;;1.20;0.93;;;2.70;99.90;;;;;;4975499;28;20198;-85
2022/03/06 08:01:56;;;;;;;2.33;1.93;;;2.80;99.90;;;;;;4979467;28;20193;-86
2022/03/06 08:04:22;;;;;;;1.10;1.00;;;3.00;99.90;;;;;;4984780;28;20240;-85
2022/03/06 08:06:48;;;;;;;0.90;0.80;;;3.30;99.90;;;;;;4984082;28;20197;-85
2022/03/06 08:09:14;;;;;;;0.90;0.80;;;3.40;99.90;;;;;;4978906;28;20189;-85
2022/03/06 08:11:40;;;;;;;0.90;0.80;;;3.40;99.90;;;;;;4987919;28;20193;-85
2022/03/06 08:14:05;;;;;;;0.90;0.80;;;3.80;99.90;;;;;;4985894;28;20582;-85
2022/03/06 08:16:31;;;;;;;0.90;0.80;;;4.00;99.90;;;;;;4975710;28;20213;-85
2022/03/06 08:18:56;;;;;;;0.90;0.70;;;4.20;99.90;;;;;;4986435;28;20201;-86
2022/03/06 08:21:22;;;;;;;0.90;0.80;;;4.30;99.90;;;;;;4980430;28;20666;-86
2022/03/06 08:23:49;;;;;;;0.90;0.80;;;4.50;99.90;;;;;;4985034;28;20271;-86
2022/03/06 08:26:15;;;;;;;0.90;0.80;;;4.10;99.90;;;;;;4983664;28;20177;-86
2022/03/06 08:28:40;;;;;;;0.90;0.80;;;4.30;99.90;;;;;;4985214;28;20436;-86
2022/03/06 08:31:06;;;;;;;1.13;1.03;;;4.60;99.90;;;;;;4987348;28;20653;-86
2022/03/06 08:33:32;;;;;;;0.90;0.80;;;4.60;99.90;;;;;;4979305;28;20249;-86
2022/03/06 08:35:58;;;;;;;1.00;0.90;;;4.80;99.90;;;;;;4984724;28;20197;-86
2022/03/06 08:38:23;;;;;;;0.90;0.77;;;4.80;99.90;;;;;;4981205;28;20336;-87
2022/03/06 08:40:49;;;;;;;0.90;0.70;;;4.90;99.90;;;;;;4990245;28;20189;-87
2022/03/06 08:43:14;;;;;;;0.90;0.70;;;4.50;99.90;;;;;;4991404;28;20189;-86
2022/03/06 08:45:40;;;;;;;1.93;1.83;;;4.30;99.90;;;;;;4993818;28;20185;-87
2022/03/06 08:48:05;;;;;;;0.90;0.80;;;4.50;99.90;;;;;;4993277;28;20277;-86
2022/03/06 08:50:31;;;;;;;0.90;0.70;;;4.60;99.90;;;;;;4993852;28;20182;-86
2022/03/06 08:52:56;;;;;;;0.90;0.80;;;4.90;99.90;;;;;;4986988;28;20603;-87
2022/03/06 08:55:22;;;;;;;0.80;0.67;;;5.30;99.90;;;;;;4988639;28;20181;-87
2022/03/06 08:57:48;;;;;;;1.00;0.90;;;5.60;99.90;;;;;;4992912;28;20187;-86
2022/03/06 09:00:13;;;;;;;0.90;0.80;;;5.50;99.90;;;;;;4992020;28;20181;-86
2022/03/06 09:02:39;;;;;;;1.10;0.97;;;5.40;99.90;;;;;;4980526;28;20189;-87
2022/03/06 09:05:05;;;;;;;1.77;1.43;;;5.90;99.90;;;;;;4988107;28;20251;-86
2022/03/06 09:07:31;;;;;;;0.90;0.70;;;6.30;99.90;;;;;;4991755;28;20185;-87
2022/03/06 09:09:56;;;;;;;9.33;2.70;;;5.90;99.90;;;;;;4976219;28;20537;-88
2022/03/06 09:12:22;;;;;;;0.80;0.60;;;5.80;99.90;;;;;;4980914;28;20617;-87
2022/03/06 09:14:47;;;;;;;0.90;0.70;;;5.00;99.90;;;;;;4972850;28;20670;-87
2022/03/06 09:17:13;;;;;;;0.90;0.70;;;5.00;99.90;;;;;;4972025;28;20194;-87
2022/03/06 09:19:39;;;;;;;0.80;0.70;;;5.90;99.90;;;;;;4955756;28;20189;-86
2022/03/06 09:22:05;;;;;;;0.90;0.70;;;5.70;99.90;;;;;;4974637;28;20178;-87
2022/03/06 09:24:31;;;;;;;0.90;0.80;;;4.90;99.90;;;;;;4972467;28;20456;-87
2022/03/06 09:26:57;;;;;;;1.10;1.00;;;5.00;99.90;;;;;;4958334;28;20249;-87
2022/03/06 09:29:22;;;;;;;0.90;0.70;;;5.30;99.90;;;;;;4957243;28;20194;-87
2022/03/06 09:31:48;;;;;;;0.90;0.70;;;4.60;99.90;;;;;;4985237;28;20818;-87
2022/03/06 09:34:26;;;;;;;;;;;;;;;;;;;;;
2022/03/06 09:36:53;;;;;;;0.90;0.70;;;4.40;99.90;;;;;;4989741;28;20573;-87
2022/03/06 09:39:18;;;;;;;0.90;0.70;;;4.90;99.90;;;;;;4955848;28;20455;-88
2022/03/06 09:41:47;;;;;;;0.90;0.70;;;4.60;99.90;;;;;;4971531;28;20182;-88
2022/03/06 09:44:13;;;;;;;0.90;0.80;;;4.50;99.90;;;;;;4969331;28;20190;-88
2022/03/06 09:46:39;;;;;;;0.90;0.70;;;4.80;99.90;;;;;;4971436;28;20485;-87
2022/03/06 09:49:07;;;;;;;0.90;0.70;;;5.60;99.90;;;;;;4961778;28;20649;-87
2022/03/06 09:51:40;;;;;;;0.90;0.70;;;6.10;99.90;;;;;;4962147;28;20450;-87
2022/03/06 09:54:08;;;;;;;0.90;0.80;;;6.50;99.90;;;;;;4962597;28;20489;-87
2022/03/06 09:56:33;;;;;;;0.90;0.70;;;7.00;99.90;;;;;;4976512;28;20440;-87
2022/03/06 09:58:59;;;;;;;0.90;0.70;;;6.70;99.90;;;;;;4954146;28;20450;-86
2022/03/06 10:01:24;;;;;;;0.90;0.70;;;7.40;99.90;;;;;;4964822;28;20533;-87
2022/03/06 10:03:50;;;;;;;0.90;0.70;;;7.00;99.90;;;;;;4972285;28;21770;-86
2022/03/06 10:06:15;;;;;;;0.90;0.70;;;7.20;99.90;;;;;;4972862;28;20186;-87
2022/03/06 10:08:41;;;;;;;0.90;0.70;;;7.40;99.90;;;;;;4976071;28;20201;-86
2022/03/06 10:11:10;;;;;;;0.90;0.70;;;7.20;99.90;;;;;;4970800;28;20214;-87
2022/03/06 10:13:39;;;;;;;0.90;0.70;;;7.80;99.90;;;;;;4970116;28;20213;-87
2022/03/06 10:16:06;;;;;;;1.47;1.37;;;8.00;99.90;;;;;;4964990;28;20973;-86
2022/03/06 10:18:57;;;;;;;1.63;1.53;;;7.20;99.90;;;;;;4983631;28;20990;-87
2022/03/06 10:21:28;;;;;;;0.90;0.60;;;7.60;99.90;;;;;;4966966;28;20443;-87
2022/03/06 10:24:05;;;;;;;0.97;0.83;;;8.80;99.90;;;;;;4975836;28;20504;-87
2022/03/06 10:26:34;;;;;;;0.90;0.80;;;8.70;99.90;;;;;;4955353;28;20770;-87
2022/03/06 10:29:11;;;;;;;0.90;0.70;;;8.20;99.90;;;;;;4966350;28;20960;-87
2022/03/06 10:31:51;;;;;;;0.90;0.80;;;7.80;99.90;;;;;;4972065;28;20562;-87
2022/03/06 10:34:18;;;;;;;0.90;0.70;;;7.80;99.90;;;;;;4976105;28;20491;-87
2022/03/06 10:36:46;;;;;;;0.90;0.60;;;7.50;99.90;;;;;;4971864;28;20448;-87
2022/03/06 10:39:17;;;;;;;1.20;1.10;;;8.90;99.90;;;;;;4965521;28;20452;-87
2022/03/06 10:41:55;;;;;;;0.80;0.60;;;8.50;99.90;;;;;;4972598;28;20499;-87
2022/03/06 10:44:22;;;;;;;0.90;0.60;;;7.80;99.90;;;;;;4960374;28;20503;-86
2022/03/06 10:47:00;;;;;;;1.37;1.27;;;7.70;99.90;;;;;;4956441;28;20455;-87
2022/03/06 10:49:26;;;;;;;1.00;0.90;;;7.70;99.90;;;;;;4974322;28;20952;-87
2022/03/06 10:51:52;;;;;;;0.90;0.73;;;7.30;99.90;;;;;;4968463;28;20476;-85
2022/03/06 10:54:18;;;;;;;0.90;0.60;;;7.20;99.90;;;;;;4973210;28;20229;-88
2022/03/06 10:56:49;;;;;;;0.93;0.73;;;7.00;99.90;;;;;;4970830;28;20186;-88
2022/03/06 10:59:18;;;;;;;0.90;0.70;;;6.30;99.90;;;;;;4970706;28;20444;-88
2022/03/06 11:01:49;;;;;;;1.00;0.90;;;6.50;99.90;;;;;;4970138;28;20805;-88
2022/03/06 11:04:17;;;;;;;1.27;1.07;;;6.10;99.90;;;;;;4982311;28;20460;-88
2022/03/06 11:06:43;;;;;;;0.90;0.70;;;6.30;99.90;;;;;;4989516;28;20431;-88
2022/03/06 11:09:16;;;;;;;0.90;0.70;;;6.60;99.90;;;;;;4990031;28;20428;-87
2022/03/06 11:11:47;;;;;;;0.90;0.70;;;6.60;99.90;;;;;;4988170;28;20516;-87
2022/03/06 11:14:13;;;;;;;0.90;0.70;;;5.90;99.90;;;;;;4990831;28;20506;-88
2022/03/06 11:16:41;;;;;;;1.20;1.10;;;6.10;99.90;;;;;;4973052;28;20945;-87
2022/03/06 11:19:09;;;;;;;0.90;0.70;;;6.20;99.90;;;;;;4974370;28;20539;-88
2022/03/06 11:21:37;;;;;;;0.90;0.70;;;7.10;99.90;;;;;;4972839;28;20467;-88
2022/03/06 11:24:22;;;;;;;2.20;1.23;;;7.30;99.90;;;;;;4991272;28;20467;-89
2022/03/06 11:27:08;;;;;;;0.90;0.70;;;7.10;99.90;;;;;;4988313;28;20478;-88
2022/03/06 11:30:04;;;;;;;0.90;0.70;;;7.20;99.90;;;;;;4990351;28;20440;-88
2022/03/06 11:32:31;;;;;;;0.90;0.70;;;7.10;99.90;;;;;;4987975;28;20764;-88
2022/03/06 11:35:15;;;;;;;0.90;0.60;;;7.20;99.90;;;;;;4990136;28;20428;-89
2022/03/06 11:37:51;;;;;;;1.87;1.07;;;7.10;99.90;;;;;;4972951;28;20459;-87
2022/03/06 11:40:40;;;;;;;1.17;1.00;;;8.30;99.90;;;;;;4982705;28;20535;-88
2022/03/06 11:43:08;;;;;;;0.90;0.50;;;9.60;99.90;;;;;;4982973;28;20451;-88
2022/03/06 11:45:48;;;;;;;0.80;0.50;;;10.60;99.90;;;;;;4979318;28;20444;-86
2022/03/06 11:48:32;;;;;;;0.90;0.80;;;11.60;99.90;;;;;;4986154;28;20468;-88
2022/03/06 11:51:21;;;;;;;0.90;0.50;;;11.20;99.90;;;;;;4991469;28;20447;-87
2022/03/06 11:54:39;;;;;;;1.17;0.77;;;11.30;99.90;;;;;;4987176;28;20496;-88
2022/03/06 11:57:05;;;;;;;0.90;0.60;;;12.00;99.90;;;;;;4919702;29;20794;-88
2022/03/06 11:59:32;;;;;;;2.13;0.70;;;11.60;99.90;;;;;;4925308;29;20455;-89
2022/03/06 12:02:05;;;;;;;0.83;0.50;;;12.20;99.90;;;;;;4957867;28;20694;-89
2022/03/06 12:04:39;;;;;;;1.47;1.07;;;11.20;99.90;;;;;;4958511;28;21090;-89
2022/03/06 12:07:09;;;;;;;0.90;0.50;;;10.80;99.90;;;;;;4972614;28;20449;-89
2022/03/06 12:09:41;;;;;;;0.90;0.60;;;9.90;99.90;;;;;;4977756;28;20481;-86
2022/03/06 12:12:09;;;;;;;0.90;0.60;;;9.40;99.90;;;;;;4963853;28;20452;-89
2022/03/06 12:14:44;;;;;;;0.90;0.50;;;8.80;99.90;;;;;;4969812;28;20480;-86
2022/03/06 12:17:10;;;;;;;0.90;0.60;;;9.90;99.90;;;;;;4986841;28;20463;-86
2022/03/06 12:19:45;;;;;;;1.00;0.80;;;10.00;99.90;;;;;;4990979;28;20905;-89
2022/03/06 12:22:41;;;;;;;1.00;0.80;;;9.60;99.90;;;;;;4981497;28;20825;-87
2022/03/06 12:25:06;;;;;;;0.90;0.57;;;10.00;99.90;;;;;;4971371;28;20491;-86
2022/03/06 12:27:33;;;;;;;0.83;0.50;;;9.20;99.90;;;;;;4986072;28;21006;-90
2022/03/06 12:30:00;;;;;;;0.90;0.50;;;8.90;99.90;;;;;;4973767;28;20189;-89
2022/03/06 12:32:29;;;;;;;0.90;0.70;;;8.50;99.90;;;;;;4986660;28;21026;-89
2022/03/06 12:35:02;;;;;;;0.90;0.60;;;8.50;99.90;;;;;;4989910;28;20454;-86
2022/03/06 12:37:35;;;;;;;0.93;0.83;;;10.00;99.90;;;;;;4988598;28;20443;-89
2022/03/06 12:40:05;;;;;;;2.17;1.00;;;9.80;99.90;;;;;;4991481;28;20440;-85
2022/03/06 12:42:33;;;;;;;1.30;1.17;;;10.20;99.90;;;;;;4990174;28;20459;-88
2022/03/06 12:45:08;;;;;;;0.90;0.50;;;10.80;99.90;;;;;;4988039;28;20455;-88
2022/03/06 12:47:38;;;;;;;1.07;0.70;;;11.10;99.90;;;;;;4989560;28;20439;-88
2022/03/06 12:50:07;;;;;;;1.40;1.13;;;12.60;99.90;;;;;;4971423;28;20506;-89
2022/03/06 12:52:32;;;;;;;0.90;0.50;;;12.10;99.90;;;;;;4981727;28;20544;-88
2022/03/06 12:55:03;;;;;;;1.00;0.70;;;11.80;99.90;;;;;;4990525;28;20452;-89
2022/03/06 12:57:35;;;;;;;1.53;0.63;;;10.70;99.90;;;;;;4986034;28;20248;-89
2022/03/06 13:00:01;;;;;;;0.90;0.57;;;10.40;99.90;;;;;;4988804;28;20539;-89